Anchorage/Elmendorf AFB, Alaska
Current Conditions -  °F | °C
As of 4:58 AM on Thursday 30 Oct 2014 (Local Time) from PAED Reporting Station
Clear Clear  
Wind Chill: 22°   Ceiling: Unl
Heat Index: 22°   Visibility: 10mi
Dew Point: 17°   Wind: 0mph
Humidity: 83%   Direction: NA
Pressure: 29.63"   Gusts: NA
Location:  61.25°N, 149.79°W
Report Text: PAED 301258Z AUTO 00000KT 10SM CLR M06/M08 A2963 RMK AO2 SLP032 T10571082 $
Loading
Personal Weather Stations






























Interactive Weather Map New forecast layout! Learn more

10-Day Weather Forecast

Advertisements
Track Severe Weather on mobile